Search for airport 
image banner adimage banner adimage banner ad
image banner ad

2PA5 - Johnson

Located in Port Allegany, United States

ICAO - 2PA5, IATA -

Data provided by Airmate  

General information

Coordinates: N41°46'50" W78°16'9"
Elevation is 1506 feet MSL.
Magnetic variation is -10° East
View others Airports in Pennsylvania

Operational data

Special qualification required
Current time UTC:
Current local time:
Weather at : KBFD - Bradford Rgnl ( 31 km )
METAR: KBFD 091321Z AUTO 18006KT 10SM BKN018 07/01 A3001 RMK AO2 CIG 012V023 T00670006
TAF: KBFD 091131Z 0912/1012 26004KT P6SM SCT030 BKN100 FM091500 15006KT 4SM -RA BR OVC020 FM091800 13008G15KT 3SM -RASN BR OVC008 FM100200 05008G20KT 2SM -RASN BR OVC005 FM101000 34008G15KT P6SM BKN009 OVC015
View NOTAMs / SUP AIP / TFR affecting this airport [VIEW]
Communications frequencies: [VIEW]

Runways:

RWY identifierQFULength (ft)Width (ft)SurfaceLDA (ft)
18275045GRASS
36275045GRASS

Airport contact information

Address: Port Allegany United States

Satellite view of 2PA5